createdAt,value
2016-06-19T00:00:52.046Z,0
2016-06-19T00:01:52.065Z,0
2016-06-19T00:02:50.881Z,0
2016-06-19T00:03:51.556Z,0
2016-06-19T00:04:52.185Z,0
2016-06-19T00:05:52.829Z,0
2016-06-19T00:06:51.661Z,0
2016-06-19T00:07:51.695Z,0
2016-06-19T00:08:51.105Z,0
2016-06-19T00:09:52.375Z,0
2016-06-19T00:10:51.799Z,0
2016-06-19T00:11:52.428Z,0
2016-06-19T00:12:51.854Z,0
2016-06-19T00:13:51.904Z,0
2016-06-19T00:14:51.330Z,0
2016-06-19T00:15:52.598Z,0
2016-06-19T00:16:52.601Z,0
2016-06-19T00:17:52.043Z,0
2016-06-19T00:18:52.686Z,0
2016-06-19T00:19:52.722Z,0
2016-06-19T00:20:52.757Z,0
2016-06-19T00:21:52.791Z,0
2016-06-19T00:22:52.825Z,0
2016-06-19T00:23:52.266Z,0
2016-06-19T00:24:52.895Z,0
2016-06-19T00:25:51.727Z,0
2016-06-19T00:26:51.761Z,0
2016-06-19T00:27:53.015Z,0
2016-06-19T00:28:53.080Z,0
2016-06-19T00:29:51.865Z,0
2016-06-19T00:30:52.525Z,0
2016-06-19T00:31:53.153Z,0
2016-06-19T00:32:52.579Z,0
2016-06-19T00:33:53.223Z,0
2016-06-19T00:34:52.055Z,0
2016-06-19T00:35:52.699Z,0
2016-06-19T00:36:52.109Z,0
2016-06-19T00:37:52.752Z,0
2016-06-19T00:38:52.802Z,0
2016-06-19T00:39:53.447Z,0
2016-06-19T00:40:52.856Z,0
2016-06-19T00:41:53.516Z,0
2016-06-19T00:42:52.942Z,0
2016-06-19T00:43:54.227Z,0
2016-06-19T00:44:53.027Z,0
2016-06-19T00:45:54.265Z,0
2016-06-19T00:46:53.674Z,0
2016-06-19T00:47:53.724Z,0
2016-06-19T00:48:53.165Z,0
2016-06-19T00:49:54.404Z,0
2016-06-19T00:50:53.235Z,0
2016-06-19T00:51:52.661Z,0
2016-06-19T00:52:53.304Z,0
2016-06-19T00:53:54.557Z,0
2016-06-19T00:54:53.967Z,0
2016-06-19T00:55:52.799Z,0
2016-06-19T00:56:54.037Z,0
2016-06-19T00:57:54.696Z,0
2016-06-19T00:58:54.138Z,0
2016-06-19T00:59:52.938Z,0
2016-06-19T01:00:54.192Z,0
2016-06-19T01:01:53.617Z,0
2016-06-19T01:02:54.277Z,0
2016-06-19T01:03:54.311Z,0
2016-06-19T01:04:54.345Z,0
2016-06-19T01:05:53.771Z,0
2016-06-19T01:06:54.415Z,0
2016-06-19T01:07:53.840Z,0
2016-06-19T01:08:54.484Z,0
2016-06-19T01:09:54.519Z,0
2016-06-19T01:10:54.554Z,0
2016-06-19T01:11:55.214Z,0
2016-06-19T01:12:55.233Z,0
2016-06-19T01:13:54.659Z,0
2016-06-19T01:14:55.318Z,0
2016-06-19T01:15:54.134Z,0
2016-06-19T01:16:54.762Z,0
2016-06-19T01:17:54.204Z,0
2016-06-19T01:18:54.879Z,0
2016-06-19T01:19:54.882Z,0
2016-06-19T01:20:53.698Z,0
2016-06-19T01:21:53.748Z,0
2016-06-19T01:22:54.392Z,0
2016-06-19T01:23:55.021Z,0
2016-06-19T01:24:55.665Z,0
2016-06-19T01:25:55.700Z,0
2016-06-19T01:26:55.141Z,0
2016-06-19T01:27:55.160Z,0
2016-06-19T01:28:54.600Z,0
2016-06-19T01:29:55.839Z,0
2016-06-19T01:30:55.265Z,0
2016-06-19T01:31:55.314Z,0
2016-06-19T01:32:54.739Z,0
2016-06-19T01:33:54.775Z,0
2016-06-19T01:34:55.418Z,0
2016-06-19T01:35:55.453Z,0
2016-06-19T01:36:56.097Z,0
2016-06-19T01:37:54.913Z,0
2016-06-19T01:38:54.948Z,0
2016-06-19T01:39:55.608Z,0
2016-06-19T01:40:56.236Z,0
2016-06-19T01:41:54.442Z,0
2016-06-19T01:42:55.712Z,0
2016-06-19T01:43:55.730Z,0
2016-06-19T01:44:55.766Z,0
2016-06-19T01:45:55.206Z,0
2016-06-19T01:46:55.240Z,0
2016-06-19T01:47:55.260Z,0
2016-06-19T01:48:55.311Z,0
2016-06-19T01:49:56.564Z,0
2016-06-19T01:50:55.989Z,0
2016-06-19T01:51:55.399Z,0
2016-06-19T01:52:56.059Z,0
2016-06-19T01:53:56.094Z,0
2016-06-19T01:54:55.507Z,0
2016-06-19T01:55:56.780Z,0
2016-06-19T01:56:55.616Z,0
2016-06-19T01:57:56.857Z,0
2016-06-19T01:58:56.894Z,0
2016-06-19T01:59:56.321Z,0
2016-06-19T02:00:55.748Z,0
2016-06-19T02:01:56.393Z,0
2016-06-19T02:02:55.836Z,0
2016-06-19T02:03:55.871Z,0
2016-06-19T02:04:56.500Z,0
2016-06-19T02:05:55.926Z,0
2016-06-19T02:06:56.571Z,0
2016-06-19T02:07:55.403Z,0
2016-06-19T02:08:56.641Z,0
2016-06-19T02:09:55.472Z,0
2016-06-19T02:10:56.711Z,0
2016-06-19T02:11:55.526Z,0
2016-06-19T02:12:56.779Z,0
2016-06-19T02:13:57.440Z,0
2016-06-19T02:14:56.256Z,0
2016-06-19T02:15:56.274Z,0
2016-06-19T02:16:56.325Z,0
2016-06-19T02:17:56.985Z,0
2016-06-19T02:18:56.989Z,0
2016-06-19T02:19:57.022Z,0
2016-06-19T02:20:56.464Z,0
2016-06-19T02:21:55.874Z,0
2016-06-19T02:22:57.127Z,0
2016-06-19T02:23:56.567Z,0
2016-06-19T02:24:56.603Z,0
2016-06-19T02:25:57.232Z,0
2016-06-19T02:26:57.281Z,0
2016-06-19T02:27:56.706Z,0
2016-06-19T02:28:56.742Z,0
2016-06-19T02:29:57.385Z,0
2016-06-19T02:30:57.420Z,0
2016-06-19T02:31:57.470Z,0
2016-06-19T02:32:56.881Z,0
2016-06-19T02:33:57.524Z,0
2016-06-19T02:34:56.950Z,0
2016-06-19T02:35:57.594Z,0
2016-06-19T02:36:57.034Z,0
2016-06-19T02:37:57.694Z,0
2016-06-19T02:38:57.119Z,0
2016-06-19T02:39:57.122Z,0
2016-06-19T02:40:57.158Z,0
2016-06-19T02:41:57.193Z,0
2016-06-19T02:42:57.821Z,0
2016-06-19T02:43:56.669Z,0
2016-06-19T02:44:57.312Z,0
2016-06-19T02:45:57.940Z,0
2016-06-19T02:46:57.366Z,0
2016-06-19T02:47:58.620Z,0
2016-06-19T02:48:58.044Z,0
2016-06-19T02:49:58.673Z,0
2016-06-19T02:50:58.114Z,0
2016-06-19T02:51:57.540Z,0
2016-06-19T02:52:57.574Z,4
2016-06-19T02:53:57.015Z,4
2016-06-19T02:54:57.050Z,0
2016-06-19T02:55:58.288Z,0
2016-06-19T02:56:58.338Z,0
2016-06-19T02:57:57.763Z,4
2016-06-19T02:58:58.392Z,0
2016-06-19T02:59:59.052Z,0
2016-06-19T03:00:57.867Z,0
2016-06-19T03:01:57.293Z,4
2016-06-19T03:02:58.530Z,4
2016-06-19T03:03:57.972Z,4
2016-06-19T03:04:58.616Z,4
2016-06-19T03:05:59.260Z,0
2016-06-19T03:06:59.294Z,4
2016-06-19T03:07:57.502Z,8
2016-06-19T03:08:58.755Z,8
2016-06-19T03:09:57.586Z,4
2016-06-19T03:10:58.824Z,4
2016-06-19T03:11:58.280Z,8
2016-06-19T03:12:58.894Z,8
2016-06-19T03:13:58.335Z,4
2016-06-19T03:14:58.963Z,8
2016-06-19T03:15:58.388Z,8
2016-06-19T03:16:59.048Z,8
2016-06-19T03:17:59.068Z,8
2016-06-19T03:18:59.101Z,8
2016-06-19T03:19:58.543Z,8
2016-06-19T03:20:59.187Z,8
2016-06-19T03:21:59.237Z,12
2016-06-19T03:22:59.849Z,8
2016-06-19T03:23:58.682Z,12
2016-06-19T03:24:58.123Z,12
2016-06-19T03:25:58.751Z,12
2016-06-19T03:26:59.395Z,12
2016-06-19T03:27:58.821Z,16
2016-06-19T03:28:59.464Z,12
2016-06-19T03:29:58.906Z,16
2016-06-19T03:30:59.534Z,16
2016-06-19T03:31:58.974Z,20
2016-06-19T03:32:58.994Z,20
2016-06-19T03:33:59.654Z,24
2016-06-19T03:34:58.470Z,24
2016-06-19T03:36:00.332Z,24
2016-06-19T03:37:00.352Z,28
2016-06-19T03:37:59.183Z,28
2016-06-19T03:38:58.593Z,28
2016-06-19T03:39:59.862Z,28
2016-06-19T03:40:59.319Z,28
2016-06-19T03:42:00.525Z,32
2016-06-19T03:42:59.951Z,36
2016-06-19T03:44:00.610Z,40
2016-06-19T03:45:00.660Z,44
2016-06-19T03:46:00.054Z,44
2016-06-19T03:46:59.496Z,44
2016-06-19T03:47:58.920Z,44
2016-06-19T03:48:59.565Z,44
2016-06-19T03:49:59.600Z,44
2016-06-19T03:51:00.243Z,48
2016-06-19T03:52:00.278Z,48
2016-06-19T03:52:59.689Z,52
2016-06-19T03:54:00.957Z,56
2016-06-19T03:55:00.382Z,52
2016-06-19T03:55:59.808Z,52
2016-06-19T03:56:59.827Z,56
2016-06-19T03:57:59.893Z,56
2016-06-19T03:59:01.146Z,60
2016-06-19T04:00:00.557Z,64
2016-06-19T04:01:00.606Z,72
2016-06-19T04:02:01.234Z,80
2016-06-19T04:03:00.660Z,84
2016-06-19T04:04:00.085Z,76
2016-06-19T04:05:01.370Z,76
2016-06-19T04:06:01.373Z,80
2016-06-19T04:07:00.190Z,80
2016-06-19T04:08:00.240Z,84
2016-06-19T04:09:00.275Z,88
2016-06-19T04:10:00.903Z,88
2016-06-19T04:11:00.954Z,88
2016-06-19T04:12:00.990Z,88
2016-06-19T04:12:59.793Z,96
2016-06-19T04:14:01.047Z,100
2016-06-19T04:15:00.490Z,108
2016-06-19T04:16:01.729Z,120
2016-06-19T04:17:01.780Z,136
2016-06-19T04:18:01.207Z,156
2016-06-19T04:19:01.241Z,168
2016-06-19T04:20:00.058Z,176
2016-06-19T04:21:01.312Z,184
2016-06-19T04:22:00.737Z,188
2016-06-19T04:23:01.365Z,192
2016-06-19T04:24:01.416Z,200
2016-06-19T04:25:01.467Z,208
2016-06-19T04:26:01.486Z,212
2016-06-19T04:27:01.520Z,204
2016-06-19T04:28:01.555Z,216
2016-06-19T04:29:00.980Z,232
2016-06-19T04:30:00.422Z,248
2016-06-19T04:31:00.456Z,260
2016-06-19T04:32:00.474Z,272
2016-06-19T04:33:01.135Z,284
2016-06-19T04:34:00.561Z,296
2016-06-19T04:35:01.814Z,284
2016-06-19T04:36:01.223Z,276
2016-06-19T04:37:01.258Z,268
2016-06-19T04:38:02.543Z,272
2016-06-19T04:39:01.952Z,296
2016-06-19T04:40:01.377Z,328
2016-06-19T04:41:01.428Z,372
2016-06-19T04:42:02.056Z,460
2016-06-19T04:43:01.482Z,800
2016-06-19T04:44:02.127Z,700
2016-06-19T04:45:01.566Z,644
2016-06-19T04:46:01.586Z,716
2016-06-19T04:47:02.840Z,1000
2016-06-19T04:48:01.671Z,976
2016-06-19T04:49:01.690Z,952
2016-06-19T04:50:01.741Z,1072
2016-06-19T04:51:02.400Z,956
2016-06-19T04:52:01.826Z,748
2016-06-19T04:53:03.047Z,760
2016-06-19T04:54:02.488Z,652
2016-06-19T04:55:03.133Z,564
2016-06-19T04:56:03.168Z,548
2016-06-19T04:57:01.374Z,552
2016-06-19T04:58:02.033Z,532
2016-06-19T04:59:02.662Z,520
2016-06-19T05:00:02.118Z,608
2016-06-19T05:01:02.138Z,568
2016-06-19T05:02:01.564Z,708
2016-06-19T05:03:02.817Z,1308
2016-06-19T05:04:02.882Z,1340
2016-06-19T05:05:01.683Z,1320
2016-06-19T05:06:02.921Z,1264
2016-06-19T05:07:03.565Z,1360
2016-06-19T05:08:02.396Z,1340
2016-06-19T05:09:03.040Z,1208
2016-06-19T05:10:01.856Z,916
2016-06-19T05:11:02.517Z,1440
2016-06-19T05:12:03.160Z,1364
2016-06-19T05:13:01.976Z,1124
2016-06-19T05:14:02.011Z,1184
2016-06-19T05:15:02.655Z,1520
2016-06-19T05:16:02.706Z,1620
2016-06-19T05:17:03.349Z,1092
2016-06-19T05:18:02.775Z,948
2016-06-19T05:19:02.809Z,860
2016-06-19T05:20:03.453Z,848
2016-06-19T05:21:02.894Z,860
2016-06-19T05:22:04.164Z,752
2016-06-19T05:23:03.573Z,668
2016-06-19T05:24:03.015Z,664
2016-06-19T05:25:03.049Z,672
2016-06-19T05:26:03.693Z,632
2016-06-19T05:27:03.728Z,652
2016-06-19T05:28:03.153Z,644
2016-06-19T05:29:04.422Z,592
2016-06-19T05:30:04.441Z,536
2016-06-19T05:31:02.663Z,484
2016-06-19T05:32:04.527Z,576
2016-06-19T05:33:03.342Z,560
2016-06-19T05:34:03.408Z,580
2016-06-19T05:35:04.053Z,556
2016-06-19T05:36:04.103Z,608
2016-06-19T05:37:04.716Z,664
2016-06-19T05:38:03.546Z,676
2016-06-19T05:39:03.581Z,684
2016-06-19T05:40:04.210Z,716
2016-06-19T05:41:03.652Z,736
2016-06-19T05:42:04.295Z,708
2016-06-19T05:43:03.737Z,680
2016-06-19T05:44:03.145Z,644
2016-06-19T05:45:03.806Z,600
2016-06-19T05:46:03.840Z,536
2016-06-19T05:47:04.469Z,456
2016-06-19T05:48:04.520Z,420
2016-06-19T05:49:04.569Z,408
2016-06-19T05:50:03.994Z,396
2016-06-19T05:51:04.030Z,392
2016-06-19T05:52:04.081Z,400
2016-06-19T05:53:05.348Z,432
2016-06-19T05:54:03.525Z,460
2016-06-19T05:55:03.574Z,476
2016-06-19T05:56:05.437Z,492
2016-06-19T05:57:04.254Z,508
2016-06-19T05:58:04.882Z,520
2016-06-19T05:59:04.355Z,620
2016-06-19T06:00:04.372Z,628
2016-06-19T06:01:04.392Z,640
2016-06-19T06:02:04.443Z,656
2016-06-19T06:03:04.477Z,720
2016-06-19T06:04:03.902Z,804
2016-06-19T06:05:05.781Z,748
2016-06-19T06:06:05.190Z,752
2016-06-19T06:07:04.616Z,848
2016-06-19T06:08:05.261Z,880
2016-06-19T06:09:05.310Z,768
2016-06-19T06:10:05.345Z,836
2016-06-19T06:11:05.380Z,880
2016-06-19T06:12:04.196Z,932
2016-06-19T06:13:05.449Z,1184
2016-06-19T06:14:05.500Z,1228
2016-06-19T06:15:04.941Z,1352
2016-06-19T06:16:04.944Z,1312
2016-06-19T06:17:04.995Z,1332
2016-06-19T06:18:05.654Z,1796
2016-06-19T06:19:05.657Z,1292
2016-06-19T06:20:05.723Z,816
2016-06-19T06:21:05.758Z,592
2016-06-19T06:22:05.793Z,688
2016-06-19T06:23:05.812Z,744
2016-06-19T06:24:05.862Z,836
2016-06-19T06:25:05.320Z,860
2016-06-19T06:26:05.931Z,936
2016-06-19T06:27:05.966Z,1048
2016-06-19T06:28:05.414Z,1140
2016-06-19T06:29:05.454Z,1468
2016-06-19T06:30:06.698Z,1696
2016-06-19T06:31:05.535Z,1736
2016-06-19T06:32:04.981Z,1660
2016-06-19T06:33:05.628Z,1540
2016-06-19T06:34:06.884Z,1548
2016-06-19T06:35:06.327Z,1672
2016-06-19T06:36:06.958Z,1764
2016-06-19T06:37:05.166Z,1684
2016-06-19T06:38:05.826Z,1592
2016-06-19T06:39:05.863Z,1688
2016-06-19T06:40:06.507Z,1728
2016-06-19T06:41:06.543Z,1700
2016-06-19T06:42:06.594Z,1568
2016-06-19T06:43:06.018Z,1484
2016-06-19T06:44:05.444Z,1444
2016-06-19T06:45:06.103Z,1380
2016-06-19T06:46:06.140Z,1340
2016-06-19T06:47:06.768Z,1256
2016-06-19T06:48:06.208Z,1184
2016-06-19T06:49:06.259Z,1200
2016-06-19T06:50:06.887Z,1220
2016-06-19T06:51:05.718Z,1172
2016-06-19T06:52:05.753Z,1080
2016-06-19T06:53:06.413Z,968
2016-06-19T06:54:06.432Z,904
2016-06-19T06:55:07.092Z,936
2016-06-19T06:56:06.533Z,1076
2016-06-19T06:57:07.770Z,1268
2016-06-19T06:58:07.212Z,1304
2016-06-19T06:59:07.246Z,1324
2016-06-19T07:00:06.672Z,1392
2016-06-19T07:01:07.331Z,1480
2016-06-19T07:02:07.366Z,1456
2016-06-19T07:03:06.791Z,1492
2016-06-19T07:04:07.435Z,1440
2016-06-19T07:05:08.095Z,1476
2016-06-19T07:06:06.895Z,1248
2016-06-19T07:07:07.555Z,1132
2016-06-19T07:08:06.981Z,1400
2016-06-19T07:09:07.030Z,1648
2016-06-19T07:10:07.675Z,1820
2016-06-19T07:11:07.709Z,1764
2016-06-19T07:12:07.744Z,1536
2016-06-19T07:13:06.623Z,1280
2016-06-19T07:14:06.611Z,1044
2016-06-19T07:15:07.254Z,860
2016-06-19T07:16:07.304Z,788
2016-06-19T07:17:07.339Z,804
2016-06-19T07:18:07.375Z,812
2016-06-19T07:19:08.643Z,760
2016-06-19T07:20:08.069Z,784
2016-06-19T07:21:08.698Z,828
2016-06-19T07:22:07.528Z,940
2016-06-19T07:23:08.173Z,1164
2016-06-19T07:24:08.223Z,1280
2016-06-19T07:25:07.649Z,1312
2016-06-19T07:26:08.292Z,1312
2016-06-19T07:27:07.734Z,1312
2016-06-19T07:28:07.144Z,1268
2016-06-19T07:29:08.412Z,1256
2016-06-19T07:30:07.244Z,1256
2016-06-19T07:31:07.888Z,1156
2016-06-19T07:32:08.532Z,1108
2016-06-19T07:33:07.958Z,1092
2016-06-19T07:34:07.992Z,1240
2016-06-19T07:35:08.637Z,1416
2016-06-19T07:36:07.468Z,1508
2016-06-19T07:37:08.112Z,1596
2016-06-19T07:38:08.147Z,1568
2016-06-19T07:39:08.806Z,1388
2016-06-19T07:40:08.841Z,1328
2016-06-19T07:41:08.891Z,1376
2016-06-19T07:42:08.317Z,1456
2016-06-19T07:43:08.961Z,1524
2016-06-19T07:44:09.042Z,1492
2016-06-19T07:45:09.030Z,2300
2016-06-19T07:46:08.472Z,2988
2016-06-19T07:47:09.115Z,3352
2016-06-19T07:48:07.947Z,2960
2016-06-19T07:49:09.810Z,2256
2016-06-19T07:50:09.250Z,2732
2016-06-19T07:51:08.660Z,1612
2016-06-19T07:52:08.742Z,1356
2016-06-19T07:53:09.355Z,1516
2016-06-19T07:54:08.780Z,1308
2016-06-19T07:55:08.221Z,1232
2016-06-19T07:56:08.881Z,1020
2016-06-19T07:57:08.307Z,808
2016-06-19T07:58:09.560Z,764
2016-06-19T07:59:10.204Z,748
2016-06-19T08:00:09.660Z,712
2016-06-19T08:01:10.288Z,644
2016-06-19T08:02:09.730Z,536
2016-06-19T08:03:09.780Z,464
2016-06-19T08:04:09.221Z,436
2016-06-19T08:05:09.240Z,416
2016-06-19T08:06:09.884Z,416
2016-06-19T08:07:10.545Z,420
2016-06-19T08:08:09.953Z,408
2016-06-19T08:09:09.411Z,388
2016-06-19T08:10:10.647Z,384
2016-06-19T08:11:09.480Z,392
2016-06-19T08:12:10.733Z,404
2016-06-19T08:13:09.565Z,436
2016-06-19T08:14:09.600Z,480
2016-06-19T08:15:10.244Z,520
2016-06-19T08:16:10.294Z,540
2016-06-19T08:17:09.718Z,560
2016-06-19T08:18:09.754Z,588
2016-06-19T08:19:11.008Z,644
2016-06-19T08:20:10.432Z,700
2016-06-19T08:21:10.483Z,776
2016-06-19T08:22:09.908Z,844
2016-06-19T08:23:09.943Z,904
2016-06-19T08:24:09.993Z,980
2016-06-19T08:25:10.637Z,1044
2016-06-19T08:26:10.672Z,1116
2016-06-19T08:27:10.738Z,1176
2016-06-19T08:28:10.757Z,1200
2016-06-19T08:29:10.776Z,1220
2016-06-19T08:30:10.827Z,1272
2016-06-19T08:31:10.283Z,1312
2016-06-19T08:32:10.287Z,1336
2016-06-19T08:33:10.931Z,1340
2016-06-19T08:34:10.372Z,1380
2016-06-19T08:35:11.016Z,1492
2016-06-19T08:36:09.847Z,1544
2016-06-19T08:37:11.101Z,1512
2016-06-19T08:38:11.151Z,1404
2016-06-19T08:39:09.952Z,1288
2016-06-19T08:40:11.815Z,1184
2016-06-19T08:41:11.255Z,1128
2016-06-19T08:42:11.290Z,1092
2016-06-19T08:43:11.340Z,1056
2016-06-19T08:44:10.767Z,1044
2016-06-19T08:45:10.821Z,1044
2016-06-19T08:46:10.843Z,1064
2016-06-19T08:47:10.896Z,1072
2016-06-19T08:48:10.933Z,1056
2016-06-19T08:49:12.188Z,1032
2016-06-19T08:50:11.614Z,1028
2016-06-19T08:51:11.056Z,1020
2016-06-19T08:52:11.701Z,996
2016-06-19T08:53:11.909Z,964
2016-06-19T08:54:11.773Z,932
2016-06-19T08:55:11.808Z,904
2016-06-19T08:56:11.265Z,876
2016-06-19T08:57:11.909Z,868
2016-06-19T08:58:11.335Z,868
2016-06-19T08:59:11.370Z,872
2016-06-19T09:00:12.014Z,888
2016-06-19T09:01:12.674Z,884
2016-06-19T09:02:12.084Z,868
2016-06-19T09:03:12.134Z,852
2016-06-19T09:04:11.574Z,840
2016-06-19T09:05:12.219Z,812
2016-06-19T09:06:11.034Z,808
2016-06-19T09:07:11.695Z,852
2016-06-19T09:08:12.338Z,880
2016-06-19T09:09:11.155Z,860
2016-06-19T09:10:12.408Z,836
2016-06-19T09:11:11.833Z,872
2016-06-19T09:12:11.868Z,884
2016-06-19T09:13:11.918Z,872
2016-06-19T09:14:12.562Z,836
2016-06-19T09:15:11.987Z,760
2016-06-19T09:16:12.038Z,700
2016-06-19T09:17:11.464Z,656
2016-06-19T09:18:13.326Z,648
2016-06-19T09:19:12.174Z,664
2016-06-19T09:20:12.177Z,684
2016-06-19T09:21:12.837Z,696
2016-06-19T09:22:12.871Z,708
2016-06-19T09:23:12.296Z,704
2016-06-19T09:24:12.987Z,704
2016-06-19T09:25:12.991Z,688
2016-06-19T09:26:13.026Z,680
2016-06-19T09:27:13.060Z,688
2016-06-19T09:28:11.908Z,704
2016-06-19T09:29:12.535Z,708
2016-06-19T09:30:13.180Z,708
2016-06-19T09:31:13.824Z,728
2016-06-19T09:32:13.250Z,776
2016-06-19T09:33:12.691Z,832
2016-06-19T09:34:13.335Z,904
2016-06-19T09:35:13.369Z,976
2016-06-19T09:36:13.404Z,1076
2016-06-19T09:37:12.235Z,1180
2016-06-19T09:38:12.880Z,1284
2016-06-19T09:39:12.899Z,1388
2016-06-19T09:40:14.167Z,1468
2016-06-19T09:41:12.999Z,1548
2016-06-19T09:42:13.019Z,1640
2016-06-19T09:43:13.662Z,1636
2016-06-19T09:44:13.713Z,1512
2016-06-19T09:45:14.357Z,1412
2016-06-19T09:46:14.392Z,1368
2016-06-19T09:47:13.223Z,1004
2016-06-19T09:48:13.257Z,528
2016-06-19T09:49:13.277Z,496
2016-06-19T09:50:13.952Z,556
2016-06-19T09:51:13.393Z,600
2016-06-19T09:52:14.632Z,596
2016-06-19T09:53:12.838Z,616
2016-06-19T09:54:13.513Z,692
2016-06-19T09:55:14.142Z,824
2016-06-19T09:56:13.567Z,984
2016-06-19T09:57:14.211Z,1172
2016-06-19T09:58:14.246Z,1356
2016-06-19T09:59:13.703Z,1504
2016-06-19T10:00:14.331Z,1644
2016-06-19T10:01:14.365Z,1900
2016-06-19T10:02:14.416Z,2004
2016-06-19T10:03:14.435Z,2112
2016-06-19T10:04:15.095Z,2408
2016-06-19T10:05:15.160Z,2076
2016-06-19T10:06:14.539Z,2188
2016-06-19T10:07:13.995Z,2000
2016-06-19T10:08:15.249Z,2060
2016-06-19T10:09:14.690Z,2176
2016-06-19T10:10:15.334Z,3880
2016-06-19T10:11:14.759Z,2052
2016-06-19T10:12:14.184Z,2164
2016-06-19T10:13:14.829Z,2036
2016-06-19T10:14:14.894Z,3232
2016-06-19T10:15:14.320Z,1896
2016-06-19T10:16:15.573Z,2032
2016-06-19T10:17:14.390Z,1856
2016-06-19T10:18:14.440Z,1848
2016-06-19T10:19:15.100Z,1700
2016-06-19T10:20:15.728Z,1672
2016-06-19T10:21:14.560Z,1680
2016-06-19T10:22:14.594Z,1696
2016-06-19T10:23:15.239Z,1680
2016-06-19T10:24:14.882Z,1712
2016-06-19T10:25:14.729Z,1784
2016-06-19T10:26:15.374Z,1672
2016-06-19T10:27:14.799Z,1664
2016-06-19T10:28:14.240Z,1596
2016-06-19T10:29:15.493Z,1456
2016-06-19T10:30:15.575Z,1340
2016-06-19T10:31:14.970Z,1304
2016-06-19T10:32:15.629Z,1344
2016-06-19T10:33:15.680Z,1300
2016-06-19T10:34:15.699Z,1188
2016-06-19T10:35:15.139Z,1044
2016-06-19T10:36:15.799Z,880
2016-06-19T10:37:16.427Z,740
2016-06-19T10:38:15.274Z,644
2016-06-19T10:39:16.528Z,556
2016-06-19T10:40:15.937Z,480
2016-06-19T10:41:15.395Z,428
2016-06-19T10:42:16.039Z,376
2016-06-19T10:43:16.073Z,328
2016-06-19T10:44:14.921Z,292
2016-06-19T10:45:16.142Z,296
2016-06-19T10:46:15.583Z,312
2016-06-19T10:47:15.633Z,332
2016-06-19T10:48:16.278Z,348
2016-06-19T10:49:16.313Z,364
2016-06-19T10:50:16.363Z,372
2016-06-19T10:51:16.398Z,388
2016-06-19T10:52:15.822Z,408
2016-06-19T10:53:16.483Z,448
2016-06-19T10:54:15.315Z,496
2016-06-19T10:55:16.552Z,576
2016-06-19T10:56:16.571Z,644
2016-06-19T10:57:16.637Z,724
2016-06-19T10:58:16.672Z,836
2016-06-19T10:59:16.691Z,988
2016-06-19T11:00:16.132Z,1144
2016-06-19T11:01:15.575Z,1340
2016-06-19T11:02:16.814Z,1488
2016-06-19T11:03:16.257Z,1652
2016-06-19T11:04:16.918Z,2032
2016-06-19T11:05:15.735Z,1716
2016-06-19T11:06:16.379Z,1752
2016-06-19T11:07:17.024Z,2660
2016-06-19T11:08:17.090Z,3840
2016-06-19T11:09:15.891Z,2584
2016-06-19T11:10:16.536Z,1552
2016-06-19T11:11:16.602Z,1432
2016-06-19T11:12:17.825Z,1404
2016-06-19T11:13:16.672Z,1832
2016-06-19T11:14:16.099Z,1420
2016-06-19T11:15:17.336Z,1408
2016-06-19T11:16:18.011Z,1540
2016-06-19T11:17:17.437Z,2100
2016-06-19T11:18:16.862Z,3208
2016-06-19T11:19:18.131Z,2116
2016-06-19T11:20:18.166Z,2796
2016-06-19T11:21:17.607Z,2040
2016-06-19T11:22:16.423Z,1564
2016-06-19T11:23:17.067Z,1452
2016-06-19T11:24:17.726Z,1688
2016-06-19T11:25:17.167Z,2704
2016-06-19T11:26:17.187Z,2680
2016-06-19T11:27:17.862Z,2280
2016-06-19T11:28:18.506Z,3268
2016-06-19T11:29:17.322Z,1764
2016-06-19T11:30:17.982Z,1540
2016-06-19T11:31:17.438Z,2504
2016-06-19T11:32:18.067Z,2836
2016-06-19T11:33:18.726Z,2912
2016-06-19T11:34:16.948Z,2980
2016-06-19T11:35:18.202Z,2852
2016-06-19T11:36:17.642Z,2744
2016-06-19T11:37:17.693Z,1308
2016-06-19T11:38:17.743Z,2584
2016-06-19T11:39:18.388Z,2768
2016-06-19T11:40:17.844Z,2580
2016-06-19T11:41:17.878Z,2456
2016-06-19T11:42:18.539Z,2384
2016-06-19T11:43:17.980Z,2356
2016-06-19T11:44:18.014Z,2340
2016-06-19T11:45:18.674Z,2396
2016-06-19T11:46:19.334Z,1628
2016-06-19T11:47:18.166Z,672
2016-06-19T11:48:18.841Z,584
2016-06-19T11:49:18.250Z,1640
2016-06-19T11:50:18.926Z,2368
2016-06-19T11:51:17.757Z,2400
2016-06-19T11:52:19.619Z,2460
2016-06-19T11:53:19.062Z,2384
2016-06-19T11:54:19.112Z,2308
2016-06-19T11:55:19.163Z,1872
2016-06-19T11:56:18.009Z,1332
2016-06-19T11:57:19.295Z,2572
2016-06-19T11:58:19.312Z,1212
2016-06-19T11:59:18.754Z,2816
2016-06-19T12:00:19.414Z,972
2016-06-19T12:01:18.854Z,896
2016-06-19T12:02:19.529Z,688
2016-06-19T12:03:18.955Z,584
2016-06-19T12:04:19.615Z,572
2016-06-19T12:05:19.665Z,836
2016-06-19T12:06:19.700Z,1092
2016-06-19T12:07:19.766Z,2500
2016-06-19T12:08:20.426Z,2504
2016-06-19T12:09:19.256Z,2248
2016-06-19T12:10:19.276Z,1172
2016-06-19T12:11:19.342Z,1572
2016-06-19T12:12:20.597Z,1140
2016-06-19T12:13:19.428Z,840
2016-06-19T12:14:19.493Z,856
2016-06-19T12:15:20.746Z,1012
2016-06-19T12:16:19.578Z,1120
2016-06-19T12:17:20.238Z,1296
2016-06-19T12:18:19.679Z,1584
2016-06-19T12:19:20.948Z,1432
2016-06-19T12:20:19.155Z,1444
2016-06-19T12:21:19.799Z,2268
2016-06-19T12:22:20.364Z,2040
2016-06-19T12:23:19.899Z,3208
2016-06-19T12:24:21.184Z,3744
2016-06-19T12:25:20.609Z,3300
2016-06-19T12:26:21.254Z,2188
2016-06-19T12:27:20.694Z,2500
2016-06-19T12:28:20.135Z,1920
2016-06-19T12:29:21.405Z,3132
2016-06-19T12:30:20.830Z,3248
2016-06-19T12:31:21.489Z,3136
2016-06-19T12:32:20.930Z,3004
2016-06-19T12:33:21.012Z,2880
2016-06-19T12:34:21.015Z,2740
2016-06-19T12:35:20.471Z,1888
2016-06-19T12:36:21.116Z,1016
2016-06-19T12:37:20.557Z,2044
2016-06-19T12:38:21.233Z,920
2016-06-19T12:39:20.657Z,748
2016-06-19T12:40:20.708Z,728
2016-06-19T12:41:21.353Z,816
2016-06-19T12:42:20.809Z,856
2016-06-19T12:43:20.250Z,920
2016-06-19T12:44:20.894Z,1016
2016-06-19T12:45:20.961Z,1080
2016-06-19T12:46:21.603Z,1348
2016-06-19T12:47:21.045Z,1704
2016-06-19T12:48:21.705Z,1152
2016-06-19T12:49:21.739Z,1100
2016-06-19T12:50:22.398Z,1056
2016-06-19T12:51:21.231Z,1312
2016-06-19T12:52:21.265Z,1044
2016-06-19T12:53:21.331Z,984
2016-06-19T12:54:21.976Z,1188
2016-06-19T12:55:22.635Z,2124
2016-06-19T12:56:21.467Z,1568
2016-06-19T12:57:22.111Z,1548
2016-06-19T12:58:22.146Z,1156
2016-06-19T12:59:22.804Z,1092
2016-06-19T13:00:21.637Z,892
2016-06-19T13:01:21.703Z,1812
2016-06-19T13:02:22.331Z,2284
2016-06-19T13:03:22.975Z,2244
2016-06-19T13:04:22.447Z,2296
2016-06-19T13:05:21.842Z,1456
2016-06-19T13:06:21.908Z,2412
2016-06-19T13:07:22.567Z,1132
2016-06-19T13:08:23.211Z,1724
2016-06-19T13:09:23.261Z,1684
2016-06-19T13:10:23.328Z,2228
2016-06-19T13:11:22.143Z,804
2016-06-19T13:12:22.803Z,688
2016-06-19T13:13:22.244Z,832
2016-06-19T13:14:22.904Z,1196
2016-06-19T13:15:22.329Z,2052
2016-06-19T13:16:23.614Z,2016
2016-06-19T13:17:23.042Z,2452
2016-06-19T13:18:23.112Z,2304
2016-06-19T13:19:23.744Z,1808
2016-06-19T13:20:22.594Z,2096
2016-06-19T13:21:23.241Z,2092
2016-06-19T13:22:22.089Z,1528
2016-06-19T13:23:23.968Z,1892
2016-06-19T13:24:22.785Z,1248
2016-06-19T13:25:23.447Z,676
2016-06-19T13:26:22.889Z,856
2016-06-19T13:27:24.158Z,1996
2016-06-19T13:28:23.584Z,1644
2016-06-19T13:29:23.041Z,868
2016-06-19T13:30:23.700Z,800
2016-06-19T13:31:23.735Z,1356
2016-06-19T13:32:23.177Z,2228
2016-06-19T13:33:23.228Z,876
2016-06-19T13:34:23.888Z,976
2016-06-19T13:35:23.329Z,1680
2016-06-19T13:36:23.990Z,1200
2016-06-19T13:37:24.649Z,1036
2016-06-19T13:38:24.090Z,768
2016-06-19T13:39:24.125Z,656
2016-06-19T13:40:24.801Z,604
2016-06-19T13:41:24.835Z,576
2016-06-19T13:42:24.261Z,544
2016-06-19T13:43:24.326Z,536
2016-06-19T13:44:24.360Z,576
2016-06-19T13:45:23.802Z,620
2016-06-19T13:46:23.837Z,692
2016-06-19T13:47:23.293Z,1164
2016-06-19T13:48:24.546Z,1864
2016-06-19T13:49:23.972Z,1888
2016-06-19T13:50:24.022Z,1392
2016-06-19T13:51:24.073Z,1100